sensor_id;sensor_type;location;lat;lon;timestamp;temperature;humidity
22383;DHT22;11359;45.802;13.530;2022-11-15T00:01:32;19.00;53.80
22383;DHT22;11359;45.802;13.530;2022-11-15T00:03:58;19.00;53.90
22383;DHT22;11359;45.802;13.530;2022-11-15T00:06:23;19.00;53.90
22383;DHT22;11359;45.802;13.530;2022-11-15T00:08:49;18.90;53.90
22383;DHT22;11359;45.802;13.530;2022-11-15T00:11:15;18.90;54.00
22383;DHT22;11359;45.802;13.530;2022-11-15T00:13:40;18.90;54.60
22383;DHT22;11359;45.802;13.530;2022-11-15T00:16:06;18.80;54.00
22383;DHT22;11359;45.802;13.530;2022-11-15T00:18:31;18.80;54.00
22383;DHT22;11359;45.802;13.530;2022-11-15T00:21:02;18.70;54.00
22383;DHT22;11359;45.802;13.530;2022-11-15T00:23:28;18.70;54.10
22383;DHT22;11359;45.802;13.530;2022-11-15T00:25:57;18.70;54.10
22383;DHT22;11359;45.802;13.530;2022-11-15T00:28:23;18.60;54.10
22383;DHT22;11359;45.802;13.530;2022-11-15T00:30:49;18.60;54.10
22383;DHT22;11359;45.802;13.530;2022-11-15T00:33:14;18.60;54.20
22383;DHT22;11359;45.802;13.530;2022-11-15T00:35:40;18.50;54.20
22383;DHT22;11359;45.802;13.530;2022-11-15T00:38:06;18.50;54.20
22383;DHT22;11359;45.802;13.530;2022-11-15T00:40:31;18.40;54.20
22383;DHT22;11359;45.802;13.530;2022-11-15T00:42:57;18.40;54.20
22383;DHT22;11359;45.802;13.530;2022-11-15T00:45:23;18.40;54.30
22383;DHT22;11359;45.802;13.530;2022-11-15T00:47:49;18.30;54.30
22383;DHT22;11359;45.802;13.530;2022-11-15T00:50:17;18.30;54.30
22383;DHT22;11359;45.802;13.530;2022-11-15T00:52:43;18.20;54.30
22383;DHT22;11359;45.802;13.530;2022-11-15T00:55:13;18.20;54.30
22383;DHT22;11359;45.802;13.530;2022-11-15T00:57:39;18.20;54.30
22383;DHT22;11359;45.802;13.530;2022-11-15T01:00:05;18.10;54.30
22383;DHT22;11359;45.802;13.530;2022-11-15T01:02:31;18.10;54.40
22383;DHT22;11359;45.802;13.530;2022-11-15T01:04:57;18.00;54.40
22383;DHT22;11359;45.802;13.530;2022-11-15T01:07:25;18.00;54.40
22383;DHT22;11359;45.802;13.530;2022-11-15T01:09:50;18.00;54.50
22383;DHT22;11359;45.802;13.530;2022-11-15T01:12:16;17.90;55.20
22383;DHT22;11359;45.802;13.530;2022-11-15T01:14:41;17.90;54.60
22383;DHT22;11359;45.802;13.530;2022-11-15T01:17:07;17.80;54.60
22383;DHT22;11359;45.802;13.530;2022-11-15T01:19:32;17.80;54.70
22383;DHT22;11359;45.802;13.530;2022-11-15T01:21:58;17.80;54.70
22383;DHT22;11359;45.802;13.530;2022-11-15T01:24:24;17.80;54.70
22383;DHT22;11359;45.802;13.530;2022-11-15T01:26:49;17.70;54.80
22383;DHT22;11359;45.802;13.530;2022-11-15T01:29:15;17.70;54.80
22383;DHT22;11359;45.802;13.530;2022-11-15T01:31:40;17.70;54.90
22383;DHT22;11359;45.802;13.530;2022-11-15T01:34:06;17.60;55.00
22383;DHT22;11359;45.802;13.530;2022-11-15T01:36:31;17.60;55.10
22383;DHT22;11359;45.802;13.530;2022-11-15T01:38:58;17.60;55.10
22383;DHT22;11359;45.802;13.530;2022-11-15T01:41:25;17.60;55.30
22383;DHT22;11359;45.802;13.530;2022-11-15T01:43:55;17.50;55.30
22383;DHT22;11359;45.802;13.530;2022-11-15T01:48:46;17.50;55.30
22383;DHT22;11359;45.802;13.530;2022-11-15T01:51:13;17.50;55.40
22383;DHT22;11359;45.802;13.530;2022-11-15T01:53:41;17.40;55.40
22383;DHT22;11359;45.802;13.530;2022-11-15T01:56:09;17.50;55.50
22383;DHT22;11359;45.802;13.530;2022-11-15T01:58:36;17.40;55.50
22383;DHT22;11359;45.802;13.530;2022-11-15T02:01:03;17.40;55.50
22383;DHT22;11359;45.802;13.530;2022-11-15T02:03:46;17.40;55.60
22383;DHT22;11359;45.802;13.530;2022-11-15T02:06:15;17.40;55.60
22383;DHT22;11359;45.802;13.530;2022-11-15T02:08:40;17.30;55.60
22383;DHT22;11359;45.802;13.530;2022-11-15T02:11:09;17.30;55.70
22383;DHT22;11359;45.802;13.530;2022-11-15T02:13:35;17.30;55.70
22383;DHT22;11359;45.802;13.530;2022-11-15T02:18:27;17.30;55.80
22383;DHT22;11359;45.802;13.530;2022-11-15T02:21:14;17.20;55.80
22383;DHT22;11359;45.802;13.530;2022-11-15T02:23:48;17.20;55.80
22383;DHT22;11359;45.802;13.530;2022-11-15T02:41:26;17.10;56.10
22383;DHT22;11359;45.802;13.530;2022-11-15T02:49:13;17.00;56.20
22383;DHT22;11359;45.802;13.530;2022-11-15T02:51:39;17.00;56.20
22383;DHT22;11359;45.802;13.530;2022-11-15T02:54:06;17.00;56.30
22383;DHT22;11359;45.802;13.530;2022-11-15T02:56:32;17.00;56.30
22383;DHT22;11359;45.802;13.530;2022-11-15T02:59:05;17.00;56.40
22383;DHT22;11359;45.802;13.530;2022-11-15T03:01:48;17.00;56.40
22383;DHT22;11359;45.802;13.530;2022-11-15T03:06:48;16.90;56.50
22383;DHT22;11359;45.802;13.530;2022-11-15T03:11:41;16.90;57.10
22383;DHT22;11359;45.802;13.530;2022-11-15T03:14:21;16.90;56.50
22383;DHT22;11359;45.802;13.530;2022-11-15T03:16:52;16.90;56.60
22383;DHT22;11359;45.802;13.530;2022-11-15T03:20:04;16.80;56.60
22383;DHT22;11359;45.802;13.530;2022-11-15T03:22:05;16.80;56.60
22383;DHT22;11359;45.802;13.530;2022-11-15T03:24:31;16.80;56.60
22383;DHT22;11359;45.802;13.530;2022-11-15T03:27:00;16.80;56.60
22383;DHT22;11359;45.802;13.530;2022-11-15T03:29:28;16.80;56.60
22383;DHT22;11359;45.802;13.530;2022-11-15T03:31:56;16.70;56.60
22383;DHT22;11359;45.802;13.530;2022-11-15T03:34:27;16.70;56.60
22383;DHT22;11359;45.802;13.530;2022-11-15T03:36:55;16.70;56.70
22383;DHT22;11359;45.802;13.530;2022-11-15T03:39:20;16.70;56.80
22383;DHT22;11359;45.802;13.530;2022-11-15T03:41:52;16.70;56.80
22383;DHT22;11359;45.802;13.530;2022-11-15T03:44:29;16.70;56.90
22383;DHT22;11359;45.802;13.530;2022-11-15T03:47:06;16.60;56.90
22383;DHT22;11359;45.802;13.530;2022-11-15T03:49:33;16.60;56.90
22383;DHT22;11359;45.802;13.530;2022-11-15T03:52:00;16.60;56.90
22383;DHT22;11359;45.802;13.530;2022-11-15T03:54:26;16.60;57.00
22383;DHT22;11359;45.802;13.530;2022-11-15T03:56:51;16.60;57.00
22383;DHT22;11359;45.802;13.530;2022-11-15T03:59:17;16.60;57.00
22383;DHT22;11359;45.802;13.530;2022-11-15T04:01:42;16.50;57.00
22383;DHT22;11359;45.802;13.530;2022-11-15T04:04:08;16.50;57.00
22383;DHT22;11359;45.802;13.530;2022-11-15T04:06:33;16.50;57.10
22383;DHT22;11359;45.802;13.530;2022-11-15T04:08:59;16.50;57.10
22383;DHT22;11359;45.802;13.530;2022-11-15T04:11:24;16.50;57.10
22383;DHT22;11359;45.802;13.530;2022-11-15T04:13:50;16.50;57.10
22383;DHT22;11359;45.802;13.530;2022-11-15T04:16:15;16.50;57.10
22383;DHT22;11359;45.802;13.530;2022-11-15T04:18:41;16.50;57.10
22383;DHT22;11359;45.802;13.530;2022-11-15T04:21:07;16.40;57.10
22383;DHT22;11359;45.802;13.530;2022-11-15T04:23:51;16.40;57.10
22383;DHT22;11359;45.802;13.530;2022-11-15T04:26:20;16.40;57.20
22383;DHT22;11359;45.802;13.530;2022-11-15T04:28:47;16.40;57.20
22383;DHT22;11359;45.802;13.530;2022-11-15T04:31:31;16.40;57.30
22383;DHT22;11359;45.802;13.530;2022-11-15T04:33:56;16.30;57.30
22383;DHT22;11359;45.802;13.530;2022-11-15T04:36:22;16.40;57.40
22383;DHT22;11359;45.802;13.530;2022-11-15T04:39:06;16.40;57.40
22383;DHT22;11359;45.802;13.530;2022-11-15T04:41:32;16.30;57.40
22383;DHT22;11359;45.802;13.530;2022-11-15T04:43:57;16.30;57.40
22383;DHT22;11359;45.802;13.530;2022-11-15T04:46:23;16.30;57.50
22383;DHT22;11359;45.802;13.530;2022-11-15T04:48:49;16.30;57.50
22383;DHT22;11359;45.802;13.530;2022-11-15T04:51:15;16.30;57.60
22383;DHT22;11359;45.802;13.530;2022-11-15T04:53:41;16.20;57.50
22383;DHT22;11359;45.802;13.530;2022-11-15T04:56:06;16.20;57.50
22383;DHT22;11359;45.802;13.530;2022-11-15T04:58:32;16.30;57.60
22383;DHT22;11359;45.802;13.530;2022-11-15T05:00:57;16.20;57.60
22383;DHT22;11359;45.802;13.530;2022-11-15T05:03:23;16.20;57.60
22383;DHT22;11359;45.802;13.530;2022-11-15T05:06:07;16.20;57.60
22383;DHT22;11359;45.802;13.530;2022-11-15T05:08:32;16.20;57.60
22383;DHT22;11359;45.802;13.530;2022-11-15T05:10:58;16.20;57.70
22383;DHT22;11359;45.802;13.530;2022-11-15T05:13:23;16.10;57.70
22383;DHT22;11359;45.802;13.530;2022-11-15T05:15:49;16.20;57.80
22383;DHT22;11359;45.802;13.530;2022-11-15T05:18:15;16.20;57.80
22383;DHT22;11359;45.802;13.530;2022-11-15T05:20:40;16.10;57.80
22383;DHT22;11359;45.802;13.530;2022-11-15T05:23:06;16.20;57.90
22383;DHT22;11359;45.802;13.530;2022-11-15T05:25:31;16.20;58.00
22383;DHT22;11359;45.802;13.530;2022-11-15T05:27:57;16.10;57.90
22383;DHT22;11359;45.802;13.530;2022-11-15T05:30:22;16.10;58.00
22383;DHT22;11359;45.802;13.530;2022-11-15T05:32:48;16.20;58.00
22383;DHT22;11359;45.802;13.530;2022-11-15T05:35:27;16.10;58.00
22383;DHT22;11359;45.802;13.530;2022-11-15T05:37:54;16.20;58.10
22383;DHT22;11359;45.802;13.530;2022-11-15T05:40:20;16.20;58.10
22383;DHT22;11359;45.802;13.530;2022-11-15T05:42:45;16.20;58.20
22383;DHT22;11359;45.802;13.530;2022-11-15T05:45:12;16.20;58.20
22383;DHT22;11359;45.802;13.530;2022-11-15T05:47:37;16.20;58.20
22383;DHT22;11359;45.802;13.530;2022-11-15T05:50:04;16.30;58.20
22383;DHT22;11359;45.802;13.530;2022-11-15T05:52:31;16.30;58.20
22383;DHT22;11359;45.802;13.530;2022-11-15T05:54:58;16.20;58.20
22383;DHT22;11359;45.802;13.530;2022-11-15T05:57:24;16.30;58.20
22383;DHT22;11359;45.802;13.530;2022-11-15T05:59:50;16.30;58.20
22383;DHT22;11359;45.802;13.530;2022-11-15T06:02:15;16.30;58.20
22383;DHT22;11359;45.802;13.530;2022-11-15T06:04:41;16.40;58.30
22383;DHT22;11359;45.802;13.530;2022-11-15T06:07:07;16.40;58.20
22383;DHT22;11359;45.802;13.530;2022-11-15T06:09:32;16.40;58.20
22383;DHT22;11359;45.802;13.530;2022-11-15T06:11:58;16.50;58.20
22383;DHT22;11359;45.802;13.530;2022-11-15T06:14:23;16.50;58.20
22383;DHT22;11359;45.802;13.530;2022-11-15T06:16:49;16.50;58.20
22383;DHT22;11359;45.802;13.530;2022-11-15T06:19:14;16.50;58.20
22383;DHT22;11359;45.802;13.530;2022-11-15T06:21:40;16.60;58.20
22383;DHT22;11359;45.802;13.530;2022-11-15T06:24:05;16.60;58.20
22383;DHT22;11359;45.802;13.530;2022-11-15T06:26:31;16.70;58.20
22383;DHT22;11359;45.802;13.530;2022-11-15T06:28:56;16.70;58.20
22383;DHT22;11359;45.802;13.530;2022-11-15T06:31:22;16.70;58.20
22383;DHT22;11359;45.802;13.530;2022-11-15T06:33:48;16.80;58.20
22383;DHT22;11359;45.802;13.530;2022-11-15T06:36:14;16.80;58.20
22383;DHT22;11359;45.802;13.530;2022-11-15T06:38:42;16.80;58.10
22383;DHT22;11359;45.802;13.530;2022-11-15T06:41:09;16.90;58.10
22383;DHT22;11359;45.802;13.530;2022-11-15T06:43:34;16.90;58.10
22383;DHT22;11359;45.802;13.530;2022-11-15T06:46:00;16.90;58.10
22383;DHT22;11359;45.802;13.530;2022-11-15T06:48:26;16.90;58.00
22383;DHT22;11359;45.802;13.530;2022-11-15T06:50:55;17.00;58.10
22383;DHT22;11359;45.802;13.530;2022-11-15T06:53:21;17.00;58.00
22383;DHT22;11359;45.802;13.530;2022-11-15T06:55:46;17.00;58.00
22383;DHT22;11359;45.802;13.530;2022-11-15T06:58:12;17.10;58.00
22383;DHT22;11359;45.802;13.530;2022-11-15T07:00:38;17.10;57.90
22383;DHT22;11359;45.802;13.530;2022-11-15T07:03:03;17.10;57.90
22383;DHT22;11359;45.802;13.530;2022-11-15T07:05:29;17.10;57.80
22383;DHT22;11359;45.802;13.530;2022-11-15T07:07:55;17.20;57.80
22383;DHT22;11359;45.802;13.530;2022-11-15T07:10:21;17.20;57.80
22383;DHT22;11359;45.802;13.530;2022-11-15T07:12:49;17.20;57.80
22383;DHT22;11359;45.802;13.530;2022-11-15T07:15:15;17.20;57.70
22383;DHT22;11359;45.802;13.530;2022-11-15T07:17:41;17.30;57.70
22383;DHT22;11359;45.802;13.530;2022-11-15T07:20:06;17.30;57.70
22383;DHT22;11359;45.802;13.530;2022-11-15T07:22:32;17.30;57.70
22383;DHT22;11359;45.802;13.530;2022-11-15T07:24:57;17.30;57.70
22383;DHT22;11359;45.802;13.530;2022-11-15T07:27:23;17.30;57.70
22383;DHT22;11359;45.802;13.530;2022-11-15T07:29:48;17.30;58.30
22383;DHT22;11359;45.802;13.530;2022-11-15T07:32:14;17.30;57.60
22383;DHT22;11359;45.802;13.530;2022-11-15T07:34:40;17.40;58.30
22383;DHT22;11359;45.802;13.530;2022-11-15T07:37:05;17.40;57.60
22383;DHT22;11359;45.802;13.530;2022-11-15T07:39:31;17.40;57.70
22383;DHT22;11359;45.802;13.530;2022-11-15T07:41:56;17.40;57.70
22383;DHT22;11359;45.802;13.530;2022-11-15T07:44:42;17.40;57.70
22383;DHT22;11359;45.802;13.530;2022-11-15T07:47:07;17.40;57.70
22383;DHT22;11359;45.802;13.530;2022-11-15T07:49:33;17.50;57.70
22383;DHT22;11359;45.802;13.530;2022-11-15T07:51:58;17.50;57.70
22383;DHT22;11359;45.802;13.530;2022-11-15T07:54:24;17.50;57.70
22383;DHT22;11359;45.802;13.530;2022-11-15T07:56:49;17.50;57.70
22383;DHT22;11359;45.802;13.530;2022-11-15T07:59:15;17.50;57.70
22383;DHT22;11359;45.802;13.530;2022-11-15T08:01:40;17.60;57.90
22383;DHT22;11359;45.802;13.530;2022-11-15T08:04:06;17.60;57.90
22383;DHT22;11359;45.802;13.530;2022-11-15T08:06:31;17.60;57.90
22383;DHT22;11359;45.802;13.530;2022-11-15T08:08:57;17.60;57.90
22383;DHT22;11359;45.802;13.530;2022-11-15T08:11:22;17.60;58.00
22383;DHT22;11359;45.802;13.530;2022-11-15T08:13:48;17.60;58.00
22383;DHT22;11359;45.802;13.530;2022-11-15T08:16:14;17.60;58.00
22383;DHT22;11359;45.802;13.530;2022-11-15T08:18:39;17.70;58.00
22383;DHT22;11359;45.802;13.530;2022-11-15T08:21:05;17.70;57.90
22383;DHT22;11359;45.802;13.530;2022-11-15T08:23:31;17.70;57.90
22383;DHT22;11359;45.802;13.530;2022-11-15T08:26:04;17.70;58.00
22383;DHT22;11359;45.802;13.530;2022-11-15T08:28:30;17.70;58.00
22383;DHT22;11359;45.802;13.530;2022-11-15T08:30:56;17.70;58.10
22383;DHT22;11359;45.802;13.530;2022-11-15T08:33:22;17.70;58.10
22383;DHT22;11359;45.802;13.530;2022-11-15T08:35:51;17.70;58.10
22383;DHT22;11359;45.802;13.530;2022-11-15T08:38:16;17.80;58.20
22383;DHT22;11359;45.802;13.530;2022-11-15T08:40:42;17.80;58.20
22383;DHT22;11359;45.802;13.530;2022-11-15T08:43:07;17.80;58.20
22383;DHT22;11359;45.802;13.530;2022-11-15T08:45:33;17.80;58.20
22383;DHT22;11359;45.802;13.530;2022-11-15T08:48:03;17.80;58.20
22383;DHT22;11359;45.802;13.530;2022-11-15T08:50:29;17.80;58.20
22383;DHT22;11359;45.802;13.530;2022-11-15T08:52:55;17.80;58.20
22383;DHT22;11359;45.802;13.530;2022-11-15T08:55:20;17.90;58.30
22383;DHT22;11359;45.802;13.530;2022-11-15T08:57:46;17.90;58.30
22383;DHT22;11359;45.802;13.530;2022-11-15T09:00:12;17.90;58.30
22383;DHT22;11359;45.802;13.530;2022-11-15T09:02:39;17.90;58.30
22383;DHT22;11359;45.802;13.530;2022-11-15T09:05:05;17.90;58.30
22383;DHT22;11359;45.802;13.530;2022-11-15T09:07:30;17.90;58.30
22383;DHT22;11359;45.802;13.530;2022-11-15T09:09:57;17.90;58.20
22383;DHT22;11359;45.802;13.530;2022-11-15T09:12:22;17.90;58.20
22383;DHT22;11359;45.802;13.530;2022-11-15T09:14:48;18.00;58.30
22383;DHT22;11359;45.802;13.530;2022-11-15T09:17:13;18.00;58.30
22383;DHT22;11359;45.802;13.530;2022-11-15T09:19:39;18.00;58.30
22383;DHT22;11359;45.802;13.530;2022-11-15T09:22:05;18.00;58.40
22383;DHT22;11359;45.802;13.530;2022-11-15T09:24:31;18.00;58.40
22383;DHT22;11359;45.802;13.530;2022-11-15T09:26:56;18.00;58.40
22383;DHT22;11359;45.802;13.530;2022-11-15T09:29:22;18.00;58.40
22383;DHT22;11359;45.802;13.530;2022-11-15T09:31:48;18.00;58.40
22383;DHT22;11359;45.802;13.530;2022-11-15T09:34:14;18.00;58.40
22383;DHT22;11359;45.802;13.530;2022-11-15T09:36:39;18.00;58.40
22383;DHT22;11359;45.802;13.530;2022-11-15T09:39:05;18.00;58.40
22383;DHT22;11359;45.802;13.530;2022-11-15T09:44:05;18.00;58.50
22383;DHT22;11359;45.802;13.530;2022-11-15T09:49:08;18.00;58.60
22383;DHT22;11359;45.802;13.530;2022-11-15T09:51:53;18.00;58.60
22383;DHT22;11359;45.802;13.530;2022-11-15T09:54:26;18.00;58.60
22383;DHT22;11359;45.802;13.530;2022-11-15T09:56:52;18.00;58.60
22383;DHT22;11359;45.802;13.530;2022-11-15T10:04:30;18.10;58.80
22383;DHT22;11359;45.802;13.530;2022-11-15T10:07:04;18.10;58.90
22383;DHT22;11359;45.802;13.530;2022-11-15T10:12:12;18.10;59.00
22383;DHT22;11359;45.802;13.530;2022-11-15T10:14:38;18.10;59.10
22383;DHT22;11359;45.802;13.530;2022-11-15T10:24:45;18.20;59.10
22383;DHT22;11359;45.802;13.530;2022-11-15T10:27:12;18.20;59.00
22383;DHT22;11359;45.802;13.530;2022-11-15T10:29:45;18.20;59.00
22383;DHT22;11359;45.802;13.530;2022-11-15T10:32:11;18.30;59.10
22383;DHT22;11359;45.802;13.530;2022-11-15T10:34:37;18.30;59.10
22383;DHT22;11359;45.802;13.530;2022-11-15T10:37:03;18.30;59.20
22383;DHT22;11359;45.802;13.530;2022-11-15T10:39:29;18.30;59.20
22383;DHT22;11359;45.802;13.530;2022-11-15T10:41:54;18.30;59.20
22383;DHT22;11359;45.802;13.530;2022-11-15T10:49:21;18.40;59.20
22383;DHT22;11359;45.802;13.530;2022-11-15T10:54:14;18.40;59.10
22383;DHT22;11359;45.802;13.530;2022-11-15T10:56:42;18.40;59.10
22383;DHT22;11359;45.802;13.530;2022-11-15T10:59:14;18.40;59.10
22383;DHT22;11359;45.802;13.530;2022-11-15T11:01:47;18.40;59.00
22383;DHT22;11359;45.802;13.530;2022-11-15T11:04:13;18.40;59.00
22383;DHT22;11359;45.802;13.530;2022-11-15T11:09:23;18.40;59.10
22383;DHT22;11359;45.802;13.530;2022-11-15T11:11:52;18.50;59.20
22383;DHT22;11359;45.802;13.530;2022-11-15T11:17:35;18.50;59.20
22383;DHT22;11359;45.802;13.530;2022-11-15T11:19:38;18.50;59.20
22383;DHT22;11359;45.802;13.530;2022-11-15T11:22:11;18.50;59.10
22383;DHT22;11359;45.802;13.530;2022-11-15T11:35:02;18.50;59.00
22383;DHT22;11359;45.802;13.530;2022-11-15T11:47:37;18.60;58.90
22383;DHT22;11359;45.802;13.530;2022-11-15T11:50:10;18.60;58.90
22383;DHT22;11359;45.802;13.530;2022-11-15T11:52:46;18.60;58.90
22383;DHT22;11359;45.802;13.530;2022-11-15T12:00:26;18.70;58.90
22383;DHT22;11359;45.802;13.530;2022-11-15T12:08:00;18.70;58.90
22383;DHT22;11359;45.802;13.530;2022-11-15T12:10:29;18.80;58.90
22383;DHT22;11359;45.802;13.530;2022-11-15T12:13:00;18.80;58.90
22383;DHT22;11359;45.802;13.530;2022-11-15T12:15:31;18.80;58.80
22383;DHT22;11359;45.802;13.530;2022-11-15T12:17:58;18.90;58.90
22383;DHT22;11359;45.802;13.530;2022-11-15T12:20:27;18.90;58.80
22383;DHT22;11359;45.802;13.530;2022-11-15T12:25:32;19.00;58.70
22383;DHT22;11359;45.802;13.530;2022-11-15T12:28:03;19.10;58.60
22383;DHT22;11359;45.802;13.530;2022-11-15T12:30:39;19.10;58.50
22383;DHT22;11359;45.802;13.530;2022-11-15T12:33:29;19.10;59.10
22383;DHT22;11359;45.802;13.530;2022-11-15T12:36:00;19.20;58.50
22383;DHT22;11359;45.802;13.530;2022-11-15T12:38:59;19.30;58.50
22383;DHT22;11359;45.802;13.530;2022-11-15T12:41:19;19.30;58.50
22383;DHT22;11359;45.802;13.530;2022-11-15T12:43:45;19.40;58.40
22383;DHT22;11359;45.802;13.530;2022-11-15T12:46:18;19.40;58.20
22383;DHT22;11359;45.802;13.530;2022-11-15T12:48:47;19.50;58.10
22383;DHT22;11359;45.802;13.530;2022-11-15T12:51:13;19.50;58.00
22383;DHT22;11359;45.802;13.530;2022-11-15T12:53:39;19.50;58.00
22383;DHT22;11359;45.802;13.530;2022-11-15T12:58:50;19.60;57.80
22383;DHT22;11359;45.802;13.530;2022-11-15T13:06:45;19.80;57.60
22383;DHT22;11359;45.802;13.530;2022-11-15T13:11:56;19.80;57.40
22383;DHT22;11359;45.802;13.530;2022-11-15T13:17:01;19.90;57.10
22383;DHT22;11359;45.802;13.530;2022-11-15T13:19:26;19.90;57.10
22383;DHT22;11359;45.802;13.530;2022-11-15T13:21:52;19.90;57.00
22383;DHT22;11359;45.802;13.530;2022-11-15T13:24:37;19.90;56.90
22383;DHT22;11359;45.802;13.530;2022-11-15T13:27:14;19.90;56.90
22383;DHT22;11359;45.802;13.530;2022-11-15T13:29:43;20.00;56.90
22383;DHT22;11359;45.802;13.530;2022-11-15T13:32:15;20.00;56.90
22383;DHT22;11359;45.802;13.530;2022-11-15T13:34:45;20.00;56.80
22383;DHT22;11359;45.802;13.530;2022-11-15T13:37:33;20.00;56.70
22383;DHT22;11359;45.802;13.530;2022-11-15T13:42:57;20.00;56.50
22383;DHT22;11359;45.802;13.530;2022-11-15T13:45:24;20.00;56.40
22383;DHT22;11359;45.802;13.530;2022-11-15T13:47:56;20.00;56.40
22383;DHT22;11359;45.802;13.530;2022-11-15T13:50:26;20.00;56.50
22383;DHT22;11359;45.802;13.530;2022-11-15T13:52:53;20.00;56.50
22383;DHT22;11359;45.802;13.530;2022-11-15T13:55:25;20.00;56.50
22383;DHT22;11359;45.802;13.530;2022-11-15T13:57:55;20.00;56.40
22383;DHT22;11359;45.802;13.530;2022-11-15T14:02:54;20.00;56.50
22383;DHT22;11359;45.802;13.530;2022-11-15T14:05:23;20.00;56.50
22383;DHT22;11359;45.802;13.530;2022-11-15T14:07:59;20.10;56.70
22383;DHT22;11359;45.802;13.530;2022-11-15T14:12:57;20.10;56.60
22383;DHT22;11359;45.802;13.530;2022-11-15T14:17:51;20.20;56.60
22383;DHT22;11359;45.802;13.530;2022-11-15T14:20:19;20.20;56.50
22383;DHT22;11359;45.802;13.530;2022-11-15T14:22:55;20.10;56.40
22383;DHT22;11359;45.802;13.530;2022-11-15T14:25:25;20.20;56.50
22383;DHT22;11359;45.802;13.530;2022-11-15T14:30:35;20.20;56.50
22383;DHT22;11359;45.802;13.530;2022-11-15T14:33:01;20.20;56.50
22383;DHT22;11359;45.802;13.530;2022-11-15T14:35:28;20.20;56.40
22383;DHT22;11359;45.802;13.530;2022-11-15T14:37:53;20.20;56.30
22383;DHT22;11359;45.802;13.530;2022-11-15T14:40:21;20.20;56.30
22383;DHT22;11359;45.802;13.530;2022-11-15T14:42:48;20.20;56.30
22383;DHT22;11359;45.802;13.530;2022-11-15T14:45:18;20.30;56.40
22383;DHT22;11359;45.802;13.530;2022-11-15T14:47:44;20.30;56.30
22383;DHT22;11359;45.802;13.530;2022-11-15T14:50:19;20.30;56.20
22383;DHT22;11359;45.802;13.530;2022-11-15T14:52:45;20.30;56.10
22383;DHT22;11359;45.802;13.530;2022-11-15T14:55:21;20.30;56.00
22383;DHT22;11359;45.802;13.530;2022-11-15T14:57:48;20.30;56.00
22383;DHT22;11359;45.802;13.530;2022-11-15T15:00:14;20.30;56.10
22383;DHT22;11359;45.802;13.530;2022-11-15T15:02:40;20.30;56.10
22383;DHT22;11359;45.802;13.530;2022-11-15T15:07:38;20.30;56.10
22383;DHT22;11359;45.802;13.530;2022-11-15T15:10:03;20.30;56.10
22383;DHT22;11359;45.802;13.530;2022-11-15T15:12:29;20.40;56.20
22383;DHT22;11359;45.802;13.530;2022-11-15T15:14:55;20.40;56.20
22383;DHT22;11359;45.802;13.530;2022-11-15T15:17:20;20.40;56.30
22383;DHT22;11359;45.802;13.530;2022-11-15T15:19:49;20.40;56.20
22383;DHT22;11359;45.802;13.530;2022-11-15T15:22:15;20.40;56.20
22383;DHT22;11359;45.802;13.530;2022-11-15T15:24:42;20.40;56.10
22383;DHT22;11359;45.802;13.530;2022-11-15T15:27:08;20.40;56.10
22383;DHT22;11359;45.802;13.530;2022-11-15T15:29:33;20.50;56.10
22383;DHT22;11359;45.802;13.530;2022-11-15T15:31:59;20.40;56.10
22383;DHT22;11359;45.802;13.530;2022-11-15T15:34:24;20.50;56.10
22383;DHT22;11359;45.802;13.530;2022-11-15T15:37:05;20.50;56.20
22383;DHT22;11359;45.802;13.530;2022-11-15T15:39:31;20.50;56.10
22383;DHT22;11359;45.802;13.530;2022-11-15T15:41:56;20.50;56.00
22383;DHT22;11359;45.802;13.530;2022-11-15T15:44:22;20.50;56.00
22383;DHT22;11359;45.802;13.530;2022-11-15T15:46:48;20.50;56.00
22383;DHT22;11359;45.802;13.530;2022-11-15T15:49:13;20.50;56.00
22383;DHT22;11359;45.802;13.530;2022-11-15T15:51:39;20.60;56.00
22383;DHT22;11359;45.802;13.530;2022-11-15T15:54:04;20.50;55.90
22383;DHT22;11359;45.802;13.530;2022-11-15T15:56:30;20.60;55.90
22383;DHT22;11359;45.802;13.530;2022-11-15T15:58:55;20.60;56.00
22383;DHT22;11359;45.802;13.530;2022-11-15T16:01:21;20.60;55.90
22383;DHT22;11359;45.802;13.530;2022-11-15T16:03:50;20.60;55.90
22383;DHT22;11359;45.802;13.530;2022-11-15T16:06:32;20.60;55.90
22383;DHT22;11359;45.802;13.530;2022-11-15T16:08:58;20.60;55.80
22383;DHT22;11359;45.802;13.530;2022-11-15T16:11:24;20.70;55.90
22383;DHT22;11359;45.802;13.530;2022-11-15T16:13:50;20.70;55.90
22383;DHT22;11359;45.802;13.530;2022-11-15T16:16:15;20.70;55.80
22383;DHT22;11359;45.802;13.530;2022-11-15T16:18:41;20.70;55.80
22383;DHT22;11359;45.802;13.530;2022-11-15T16:21:07;20.70;55.80
22383;DHT22;11359;45.802;13.530;2022-11-15T16:23:32;20.70;55.80
22383;DHT22;11359;45.802;13.530;2022-11-15T16:25:58;20.80;55.80
22383;DHT22;11359;45.802;13.530;2022-11-15T16:28:28;20.80;55.80
22383;DHT22;11359;45.802;13.530;2022-11-15T16:31:01;20.80;55.70
22383;DHT22;11359;45.802;13.530;2022-11-15T16:33:28;20.80;55.70
22383;DHT22;11359;45.802;13.530;2022-11-15T16:35:53;20.80;55.60
22383;DHT22;11359;45.802;13.530;2022-11-15T16:38:19;20.80;55.60
22383;DHT22;11359;45.802;13.530;2022-11-15T16:40:45;20.80;55.50
22383;DHT22;11359;45.802;13.530;2022-11-15T16:43:11;20.90;55.60
22383;DHT22;11359;45.802;13.530;2022-11-15T16:45:36;20.80;55.50
22383;DHT22;11359;45.802;13.530;2022-11-15T16:48:02;20.90;55.50
22383;DHT22;11359;45.802;13.530;2022-11-15T16:50:29;20.90;55.40
22383;DHT22;11359;45.802;13.530;2022-11-15T16:52:56;20.90;55.40
22383;DHT22;11359;45.802;13.530;2022-11-15T16:55:23;20.90;55.40
22383;DHT22;11359;45.802;13.530;2022-11-15T16:57:49;20.90;56.10
22383;DHT22;11359;45.802;13.530;2022-11-15T17:00:15;21.00;55.40
22383;DHT22;11359;45.802;13.530;2022-11-15T17:02:51;20.90;55.40
22383;DHT22;11359;45.802;13.530;2022-11-15T17:05:17;21.00;55.40
22383;DHT22;11359;45.802;13.530;2022-11-15T17:07:45;20.90;55.40
22383;DHT22;11359;45.802;13.530;2022-11-15T17:10:11;21.00;55.40
22383;DHT22;11359;45.802;13.530;2022-11-15T17:12:37;21.00;55.40
22383;DHT22;11359;45.802;13.530;2022-11-15T17:15:06;21.00;55.40
22383;DHT22;11359;45.802;13.530;2022-11-15T17:17:31;21.00;55.30
22383;DHT22;11359;45.802;13.530;2022-11-15T17:19:57;21.00;55.30
22383;DHT22;11359;45.802;13.530;2022-11-15T17:22:23;21.00;55.30
22383;DHT22;11359;45.802;13.530;2022-11-15T17:24:49;21.00;55.30